Time;durP1;ratioP1;P1;durP2;ratioP2;P2;SDS_P1;SDS_P2;PMS_P1;PMS_P2;Temp;Humidity;BMP_temperature;BMP_pressure;BME280_temperature;BME280_humidity;BME280_pressure;Samples;Min_cycle;Max_cycle;Signal;HPM_P1;HPM_P2
2023/09/19 00:00:37;;;;;;;4.63;2.10;;;;;;;;;;5064566;28;20175;-79
2023/09/19 00:03:04;;;;;;;4.17;2.03;;;;;;;;;;5062971;28;20179;-79
2023/09/19 00:05:34;;;;;;;5.47;2.47;;;;;;;;;;5058266;28;20302;-75
2023/09/19 00:08:04;;;;;;;3.60;2.13;;;;;;;;;;5046153;28;20290;-76
2023/09/19 00:10:34;;;;;;;8.57;2.40;;;;;;;;;;5039229;22;20230;-77
2023/09/19 00:13:05;;;;;;;7.83;2.30;;;;;;;;;;5095826;28;20182;-76
2023/09/19 00:15:36;;;;;;;7.27;2.77;;;;;;;;;;5058550;28;20190;-77
2023/09/19 00:18:02;;;;;;;6.43;2.40;;;;;;;;;;5095660;28;20178;-77
2023/09/19 00:20:29;;;;;;;5.20;2.67;;;;;;;;;;5075585;28;20174;-77
2023/09/19 00:22:55;;;;;;;9.63;3.23;;;;;;;;;;5059997;28;20287;-78
2023/09/19 00:25:21;;;;;;;10.80;3.00;;;;;;;;;;5074510;28;20178;-78
2023/09/19 00:27:49;;;;;;;12.03;3.33;;;;;;;;;;5073353;28;20190;-78
2023/09/19 00:30:20;;;;;;;14.00;3.60;;;;;;;;;;5060194;28;20199;-77
2023/09/19 00:32:47;;;;;;;14.90;3.90;;;;;;;;;;5076576;28;20178;-77
2023/09/19 00:35:15;;;;;;;14.73;3.47;;;;;;;;;;5077010;28;20186;-77
2023/09/19 00:37:41;;;;;;;15.30;4.00;;;;;;;;;;5064562;28;20199;-80
2023/09/19 00:40:11;;;;;;;13.03;3.43;;;;;;;;;;5096865;28;20187;-81
2023/09/19 00:42:37;;;;;;;9.10;3.50;;;;;;;;;;5064787;28;20183;-80
2023/09/19 00:45:03;;;;;;;7.80;3.03;;;;;;;;;;5050717;28;20223;-80
2023/09/19 00:47:30;;;;;;;7.47;2.80;;;;;;;;;;5064535;28;20193;-80
2023/09/19 00:49:56;;;;;;;11.67;3.20;;;;;;;;;;5081165;28;20190;-80
2023/09/19 00:52:23;;;;;;;12.37;3.20;;;;;;;;;;5078722;28;20182;-76
2023/09/19 00:54:49;;;;;;;9.77;2.77;;;;;;;;;;5075944;28;20193;-77
2023/09/19 00:57:19;;;;;;;10.00;3.10;;;;;;;;;;5077838;28;20186;-77
2023/09/19 00:59:45;;;;;;;10.73;3.00;;;;;;;;;;5095465;28;20187;-77
2023/09/19 01:02:13;;;;;;;11.93;3.30;;;;;;;;;;5068779;28;20198;-77
2023/09/19 01:04:40;;;;;;;12.13;3.33;;;;;;;;;;5048692;28;20215;-77
2023/09/19 01:07:07;;;;;;;10.40;3.13;;;;;;;;;;5039409;28;20187;-76
2023/09/19 01:09:34;;;;;;;8.00;2.87;;;;;;;;;;5059782;28;20182;-76
2023/09/19 01:12:03;;;;;;;12.43;3.43;;;;;;;;;;5060663;28;20226;-77
2023/09/19 01:14:43;;;;;;;13.20;4.10;;;;;;;;;;5066961;28;20219;-76
2023/09/19 01:17:18;;;;;;;12.33;3.80;;;;;;;;;;5057905;28;20217;-77
2023/09/19 01:20:02;;;;;;;10.83;3.40;;;;;;;;;;5057996;28;20192;-77
2023/09/19 01:22:38;;;;;;;10.23;3.63;;;;;;;;;;5066499;28;20200;-77
2023/09/19 01:25:33;;;;;;;10.50;3.43;;;;;;;;;;5062833;28;20233;-77
2023/09/19 01:28:18;;;;;;;11.63;3.27;;;;;;;;;;5054958;28;20190;-77
2023/09/19 01:30:44;;;;;;;15.33;4.07;;;;;;;;;;5075685;28;20218;-77
2023/09/19 01:33:10;;;;;;;14.13;3.90;;;;;;;;;;5049481;28;20194;-77
2023/09/19 01:35:40;;;;;;;14.00;3.80;;;;;;;;;;5077431;28;20278;-77
2023/09/19 01:38:09;;;;;;;14.60;3.73;;;;;;;;;;5060937;28;20178;-77
2023/09/19 01:40:40;;;;;;;14.63;4.03;;;;;;;;;;5077640;28;20185;-77
2023/09/19 01:43:09;;;;;;;9.90;3.70;;;;;;;;;;5076818;28;20206;-77
2023/09/19 01:45:45;;;;;;;12.57;3.67;;;;;;;;;;5076167;28;20182;-77
2023/09/19 01:48:14;;;;;;;16.30;4.10;;;;;;;;;;5095517;28;20182;-80
2023/09/19 01:50:56;;;;;;;14.57;4.03;;;;;;;;;;5079488;28;20220;-80
2023/09/19 01:53:25;;;;;;;14.30;4.32;;;;;;;;;;5099309;28;20405;-80
2023/09/19 01:55:52;;;;;;;13.73;3.60;;;;;;;;;;5100480;28;20181;-80
2023/09/19 01:58:22;;;;;;;18.20;3.93;;;;;;;;;;5068982;28;20183;-80
2023/09/19 02:00:51;;;;;;;11.80;3.80;;;;;;;;;;5073955;28;20217;-76
2023/09/19 02:03:18;;;;;;;13.30;4.13;;;;;;;;;;5075392;28;20202;-76
2023/09/19 02:05:50;;;;;;;12.80;4.23;;;;;;;;;;5095231;28;20313;-77
2023/09/19 02:08:18;;;;;;;13.43;3.57;;;;;;;;;;5077148;28;20182;-77
2023/09/19 02:10:48;;;;;;;12.13;3.33;;;;;;;;;;5076479;28;20237;-76
2023/09/19 02:13:14;;;;;;;11.67;4.17;;;;;;;;;;5094346;28;20170;-77
2023/09/19 02:15:40;;;;;;;17.57;3.60;;;;;;;;;;5057547;28;20262;-76
2023/09/19 02:18:07;;;;;;;12.07;3.57;;;;;;;;;;5066842;28;20191;-77
2023/09/19 02:20:33;;;;;;;14.20;4.00;;;;;;;;;;5066002;28;20252;-77
2023/09/19 02:22:59;;;;;;;12.70;3.53;;;;;;;;;;5080773;28;20224;-77
2023/09/19 02:25:26;;;;;;;10.20;3.37;;;;;;;;;;5080484;28;20269;-77
2023/09/19 02:27:53;;;;;;;13.10;3.80;;;;;;;;;;5060352;28;20195;-77
2023/09/19 02:30:23;;;;;;;13.33;3.67;;;;;;;;;;5087375;28;20270;-77
2023/09/19 02:32:49;;;;;;;14.03;3.97;;;;;;;;;;5080924;28;20190;-77
2023/09/19 02:35:19;;;;;;;15.85;4.07;;;;;;;;;;5097521;28;20467;-77
2023/09/19 02:37:45;;;;;;;14.87;3.80;;;;;;;;;;5064107;28;20186;-78
2023/09/19 02:40:25;;;;;;;14.83;3.90;;;;;;;;;;5062943;28;20414;-77
2023/09/19 02:42:53;;;;;;;15.23;3.70;;;;;;;;;;5056464;28;20216;-77
2023/09/19 02:45:20;;;;;;;14.47;3.63;;;;;;;;;;5063153;28;20191;-78
2023/09/19 02:47:46;;;;;;;17.47;4.30;;;;;;;;;;5074651;28;20175;-77
2023/09/19 02:50:15;;;;;;;16.97;3.77;;;;;;;;;;5080408;28;20208;-77
2023/09/19 02:52:47;;;;;;;13.53;3.90;;;;;;;;;;5078691;28;20170;-75
2023/09/19 02:55:17;;;;;;;10.50;3.30;;;;;;;;;;5088095;28;20191;-75
2023/09/19 02:57:46;;;;;;;11.33;3.90;;;;;;;;;;5078103;28;20182;-77
2023/09/19 03:00:12;;;;;;;15.87;3.83;;;;;;;;;;5089503;28;20187;-75
2023/09/19 03:02:40;;;;;;;13.33;3.33;;;;;;;;;;5074695;28;20197;-75
2023/09/19 03:05:07;;;;;;;15.97;3.53;;;;;;;;;;5073063;28;20211;-75
2023/09/19 03:07:33;;;;;;;16.57;4.10;;;;;;;;;;5093118;28;20266;-76
2023/09/19 03:10:03;;;;;;;16.67;4.13;;;;;;;;;;5070101;28;20320;-76
2023/09/19 03:12:29;;;;;;;15.13;4.30;;;;;;;;;;5078117;28;20428;-77
2023/09/19 03:14:55;;;;;;;12.67;3.60;;;;;;;;;;5078962;28;20273;-77
2023/09/19 03:17:21;;;;;;;14.10;3.97;;;;;;;;;;5078340;28;20510;-76
2023/09/19 03:19:48;;;;;;;14.27;4.00;;;;;;;;;;5077617;28;20429;-77
2023/09/19 03:22:14;;;;;;;14.10;4.07;;;;;;;;;;5062421;28;20415;-76
2023/09/19 03:24:41;;;;;;;13.10;3.90;;;;;;;;;;5078723;28;20218;-76
2023/09/19 03:27:10;;;;;;;14.67;3.67;;;;;;;;;;5078999;28;20186;-76
2023/09/19 03:29:36;;;;;;;13.88;4.00;;;;;;;;;;5058856;28;20419;-76
2023/09/19 03:32:02;;;;;;;14.67;3.33;;;;;;;;;;5071885;28;20179;-76
2023/09/19 03:34:29;;;;;;;14.77;3.57;;;;;;;;;;5072657;28;20265;-76
2023/09/19 03:36:55;;;;;;;11.20;3.27;;;;;;;;;;5097264;28;20191;-76
2023/09/19 03:39:21;;;;;;;13.93;3.70;;;;;;;;;;5061910;28;20198;-76
2023/09/19 03:41:47;;;;;;;17.20;3.70;;;;;;;;;;5079563;28;20175;-76
2023/09/19 03:44:15;;;;;;;13.97;3.37;;;;;;;;;;5062073;28;20214;-76
2023/09/19 03:46:40;;;;;;;17.60;3.57;;;;;;;;;;5078335;28;20190;-77
2023/09/19 03:49:07;;;;;;;14.03;3.77;;;;;;;;;;5078715;28;20180;-77
2023/09/19 03:51:34;;;;;;;12.93;3.80;;;;;;;;;;5079290;28;20242;-76
2023/09/19 03:54:00;;;;;;;15.57;3.57;;;;;;;;;;5058977;28;20195;-76
2023/09/19 03:56:26;;;;;;;12.83;3.50;;;;;;;;;;5076488;28;20179;-77
2023/09/19 03:58:52;;;;;;;13.77;3.33;;;;;;;;;;5069615;28;20201;-76
2023/09/19 04:01:18;;;;;;;11.00;2.97;;;;;;;;;;5072762;28;20254;-76
2023/09/19 04:03:47;;;;;;;12.43;3.40;;;;;;;;;;5041473;28;20237;-76
2023/09/19 04:06:17;;;;;;;16.43;3.27;;;;;;;;;;5091867;28;20186;-76
2023/09/19 04:08:44;;;;;;;11.13;3.27;;;;;;;;;;5060274;28;20190;-76
2023/09/19 04:11:10;;;;;;;10.40;3.53;;;;;;;;;;5078483;28;20241;-76
2023/09/19 04:13:36;;;;;;;15.13;3.63;;;;;;;;;;5079984;28;20269;-79
2023/09/19 04:16:12;;;;;;;15.30;3.70;;;;;;;;;;5087132;28;20201;-79
2023/09/19 04:18:39;;;;;;;10.40;3.23;;;;;;;;;;5081519;28;20340;-79
2023/09/19 04:21:05;;;;;;;9.47;2.90;;;;;;;;;;5071696;28;20288;-79
2023/09/19 04:23:32;;;;;;;12.37;3.63;;;;;;;;;;5081982;28;20207;-76
2023/09/19 04:25:58;;;;;;;14.35;3.72;;;;;;;;;;5077469;28;20421;-76
2023/09/19 04:28:24;;;;;;;8.77;3.03;;;;;;;;;;5077168;28;20182;-76
2023/09/19 04:30:51;;;;;;;14.60;3.63;;;;;;;;;;5080931;28;20178;-80
2023/09/19 04:33:17;;;;;;;8.77;3.00;;;;;;;;;;5068383;28;20194;-80
2023/09/19 04:35:43;;;;;;;12.90;3.50;;;;;;;;;;5081748;28;20183;-80
2023/09/19 04:38:09;;;;;;;12.80;3.90;;;;;;;;;;5079651;28;20412;-80
2023/09/19 04:40:35;;;;;;;13.17;3.60;;;;;;;;;;5064348;28;20183;-79
2023/09/19 04:43:01;;;;;;;9.43;3.10;;;;;;;;;;5081099;28;20201;-80
2023/09/19 04:45:28;;;;;;;9.27;3.23;;;;;;;;;;5093417;28;20184;-79
2023/09/19 04:47:54;;;;;;;14.15;3.67;;;;;;;;;;5079892;28;21136;-79
2023/09/19 04:50:27;;;;;;;14.00;3.75;;;;;;;;;;5096618;28;20446;-80
2023/09/19 04:52:54;;;;;;;12.07;3.63;;;;;;;;;;5095953;28;20443;-80
2023/09/19 04:55:20;;;;;;;13.53;3.30;;;;;;;;;;5063035;28;20190;-80
2023/09/19 04:57:50;;;;;;;12.93;3.33;;;;;;;;;;5096841;28;20175;-79
2023/09/19 05:00:19;;;;;;;12.57;3.50;;;;;;;;;;5084523;28;20184;-80
2023/09/19 05:02:46;;;;;;;13.03;3.37;;;;;;;;;;5103529;28;20173;-80
2023/09/19 05:05:18;;;;;;;9.13;3.20;;;;;;;;;;5068308;28;20233;-76
2023/09/19 05:07:45;;;;;;;11.25;3.42;;;;;;;;;;5070242;28;20444;-76
2023/09/19 05:10:11;;;;;;;10.97;3.20;;;;;;;;;;5073140;28;20182;-76
2023/09/19 05:12:38;;;;;;;11.52;3.75;;;;;;;;;;5064158;28;20425;-77
2023/09/19 05:15:04;;;;;;;12.90;4.10;;;;;;;;;;5082926;28;20418;-77
2023/09/19 05:17:31;;;;;;;12.80;3.25;;;;;;;;;;5070787;28;20144;-75
2023/09/19 05:20:05;;;;;;;15.30;3.78;;;;;;;;;;5057235;28;20491;-76
2023/09/19 05:22:32;;;;;;;13.60;3.67;;;;;;;;;;5084315;28;20261;-77
2023/09/19 05:24:59;;;;;;;11.03;2.97;;;;;;;;;;5082089;28;20203;-77
2023/09/19 05:27:25;;;;;;;10.23;3.43;;;;;;;;;;5073195;28;20193;-77
2023/09/19 05:29:53;;;;;;;14.43;3.33;;;;;;;;;;5057822;28;20180;-77
2023/09/19 05:32:19;;;;;;;11.23;3.20;;;;;;;;;;5056656;28;20186;-77
2023/09/19 05:34:47;;;;;;;11.97;3.40;;;;;;;;;;5070438;28;20178;-75
2023/09/19 05:37:15;;;;;;;10.50;3.10;;;;;;;;;;5072022;28;20183;-75
2023/09/19 05:39:41;;;;;;;10.63;3.20;;;;;;;;;;5073303;28;20202;-75
2023/09/19 05:42:08;;;;;;;14.23;3.57;;;;;;;;;;5059569;28;20186;-75
2023/09/19 05:44:34;;;;;;;13.63;3.47;;;;;;;;;;5055492;28;20211;-75
2023/09/19 05:47:00;;;;;;;12.53;3.17;;;;;;;;;;5067364;28;20262;-77
2023/09/19 05:49:27;;;;;;;11.83;3.10;;;;;;;;;;5054213;28;20279;-77
2023/09/19 05:51:55;;;;;;;14.23;3.63;;;;;;;;;;5060411;28;20182;-77
2023/09/19 05:54:21;;;;;;;10.47;3.30;;;;;;;;;;5059561;28;20190;-79
2023/09/19 05:56:47;;;;;;;9.93;2.90;;;;;;;;;;5058322;28;20179;-79
2023/09/19 05:59:16;;;;;;;13.57;3.57;;;;;;;;;;5080039;28;20198;-78
2023/09/19 06:01:43;;;;;;;14.67;3.37;;;;;;;;;;5064375;28;20194;-78
2023/09/19 06:04:09;;;;;;;13.23;3.20;;;;;;;;;;5061755;28;20309;-78
2023/09/19 06:06:38;;;;;;;12.37;3.03;;;;;;;;;;5060085;28;20235;-78
2023/09/19 06:09:08;;;;;;;11.33;3.23;;;;;;;;;;5082380;28;20182;-78
2023/09/19 06:11:35;;;;;;;12.73;3.30;;;;;;;;;;5083118;28;20237;-81
2023/09/19 06:14:04;;;;;;;10.20;3.30;;;;;;;;;;5065174;28;20282;-81
2023/09/19 06:16:33;;;;;;;13.97;3.43;;;;;;;;;;5078599;28;20243;-82
2023/09/19 06:19:00;;;;;;;15.40;3.77;;;;;;;;;;5079268;28;20273;-81
2023/09/19 06:21:27;;;;;;;11.80;3.37;;;;;;;;;;5076449;28;20191;-82
2023/09/19 06:23:54;;;;;;;10.33;3.10;;;;;;;;;;5097969;28;20195;-81
2023/09/19 06:26:20;;;;;;;16.37;3.80;;;;;;;;;;5079699;28;20213;-82
2023/09/19 06:28:46;;;;;;;11.77;3.17;;;;;;;;;;5062029;28;20187;-81
2023/09/19 06:31:12;;;;;;;15.47;3.20;;;;;;;;;;5073869;28;20183;-81
2023/09/19 06:33:39;;;;;;;14.37;3.50;;;;;;;;;;5080243;28;20208;-82
2023/09/19 06:36:05;;;;;;;15.20;4.13;;;;;;;;;;5045058;28;20198;-81
2023/09/19 06:38:34;;;;;;;16.30;3.47;;;;;;;;;;5059674;28;20241;-81
2023/09/19 06:41:09;;;;;;;13.40;3.60;;;;;;;;;;5077609;28;20546;-82
2023/09/19 06:43:35;;;;;;;14.33;4.03;;;;;;;;;;5079959;28;20201;-81
2023/09/19 06:46:02;;;;;;;13.57;3.70;;;;;;;;;;5079821;28;20246;-82
2023/09/19 06:48:29;;;;;;;13.40;3.47;;;;;;;;;;5075891;28;20176;-80
2023/09/19 06:50:55;;;;;;;13.33;3.63;;;;;;;;;;5076312;28;20185;-80
2023/09/19 06:53:23;;;;;;;12.53;3.27;;;;;;;;;;5079566;28;20178;-81
2023/09/19 06:55:50;;;;;;;13.37;3.20;;;;;;;;;;5080133;28;20179;-81
2023/09/19 06:58:16;;;;;;;11.17;3.20;;;;;;;;;;5080877;28;20179;-81
2023/09/19 07:00:42;;;;;;;10.60;3.30;;;;;;;;;;5063738;28;20171;-76
2023/09/19 07:03:11;;;;;;;14.23;3.67;;;;;;;;;;5048281;28;20222;-76
2023/09/19 07:05:38;;;;;;;10.20;3.10;;;;;;;;;;5098759;28;20157;-76
2023/09/19 07:08:05;;;;;;;13.93;3.70;;;;;;;;;;5103694;28;20167;-76
2023/09/19 07:10:32;;;;;;;14.87;3.60;;;;;;;;;;5079308;28;20171;-76
2023/09/19 07:13:01;;;;;;;12.47;3.07;;;;;;;;;;5047742;28;20219;-77
2023/09/19 07:15:27;;;;;;;15.37;3.87;;;;;;;;;;5058963;28;20187;-76
2023/09/19 07:17:53;;;;;;;15.80;3.70;;;;;;;;;;5077296;28;20190;-76
2023/09/19 07:20:20;;;;;;;13.40;3.20;;;;;;;;;;5042278;28;20227;-77
2023/09/19 07:22:47;;;;;;;14.70;3.53;;;;;;;;;;5049951;28;20194;-77
2023/09/19 07:25:14;;;;;;;12.10;3.50;;;;;;;;;;5038851;28;20225;-77
2023/09/19 07:27:41;;;;;;;16.07;3.20;;;;;;;;;;5039256;28;20191;-78
2023/09/19 07:30:08;;;;;;;11.50;3.33;;;;;;;;;;5058384;28;20183;-78
2023/09/19 07:32:36;;;;;;;12.60;3.60;;;;;;;;;;5058687;28;20179;-78
2023/09/19 07:35:02;;;;;;;17.97;4.10;;;;;;;;;;5059242;28;20186;-77
2023/09/19 07:37:31;;;;;;;14.10;3.70;;;;;;;;;;5059273;28;20266;-77
2023/09/19 07:39:57;;;;;;;10.40;3.20;;;;;;;;;;5052335;28;20179;-77
2023/09/19 07:42:23;;;;;;;10.73;3.30;;;;;;;;;;5058521;28;20208;-77
2023/09/19 07:44:50;;;;;;;13.27;4.00;;;;;;;;;;5058437;28;20529;-77
2023/09/19 07:47:16;;;;;;;11.83;3.77;;;;;;;;;;5058958;28;20183;-78
2023/09/19 07:49:42;;;;;;;7.90;2.90;;;;;;;;;;5041615;28;20174;-78
2023/09/19 07:52:12;;;;;;;13.57;3.57;;;;;;;;;;5046156;28;20184;-78
2023/09/19 07:54:38;;;;;;;19.37;3.80;;;;;;;;;;5039744;28;20278;-78
2023/09/19 07:57:04;;;;;;;12.67;3.70;;;;;;;;;;5035426;28;20191;-78
2023/09/19 07:59:30;;;;;;;16.70;3.60;;;;;;;;;;5049265;28;20187;-78
2023/09/19 08:01:57;;;;;;;14.07;4.10;;;;;;;;;;5039069;28;20406;-78
2023/09/19 08:04:25;;;;;;;13.40;3.40;;;;;;;;;;5075192;28;20198;-76
2023/09/19 08:06:52;;;;;;;13.17;3.50;;;;;;;;;;5041767;28;20172;-76
2023/09/19 08:09:20;;;;;;;14.70;4.07;;;;;;;;;;5074264;28;20398;-76
2023/09/19 08:11:47;;;;;;;13.85;4.30;;;;;;;;;;5083687;28;20511;-76
2023/09/19 08:14:14;;;;;;;14.07;3.27;;;;;;;;;;5061156;28;20190;-76
2023/09/19 08:16:42;;;;;;;13.93;3.90;;;;;;;;;;5078832;28;20414;-76
2023/09/19 08:19:08;;;;;;;13.43;4.07;;;;;;;;;;5076181;28;20183;-76
2023/09/19 08:21:34;;;;;;;15.60;3.30;;;;;;;;;;5057648;28;20172;-77
2023/09/19 08:24:03;;;;;;;16.40;4.37;;;;;;;;;;5040759;28;20261;-76
2023/09/19 08:26:30;;;;;;;12.73;3.47;;;;;;;;;;5057021;28;20171;-76
2023/09/19 08:28:57;;;;;;;12.97;3.50;;;;;;;;;;5057462;28;20178;-76
2023/09/19 08:31:23;;;;;;;15.63;3.90;;;;;;;;;;5075070;28;20250;-77
2023/09/19 08:33:51;;;;;;;11.47;3.50;;;;;;;;;;5078103;28;20268;-76
2023/09/19 08:36:17;;;;;;;16.73;3.83;;;;;;;;;;5076542;28;20179;-76
2023/09/19 08:38:43;;;;;;;11.93;3.27;;;;;;;;;;5077358;28;20193;-77
2023/09/19 08:41:09;;;;;;;11.60;3.40;;;;;;;;;;5061194;28;20287;-77
2023/09/19 08:43:36;;;;;;;12.60;3.53;;;;;;;;;;5085231;28;20214;-77
2023/09/19 08:46:15;;;;;;;13.03;3.30;;;;;;;;;;5053097;28;20182;-77
2023/09/19 08:48:51;;;;;;;16.00;3.77;;;;;;;;;;5074867;28;20198;-76
2023/09/19 08:51:38;;;;;;;12.45;3.78;;;;;;;;;;5089079;28;20405;-76
2023/09/19 08:54:05;;;;;;;17.77;4.03;;;;;;;;;;5064170;28;20198;-76
2023/09/19 08:56:32;;;;;;;16.20;4.15;;;;;;;;;;5075933;28;20396;-76
2023/09/19 08:59:04;;;;;;;12.60;3.60;;;;;;;;;;5075051;28;20213;-76
2023/09/19 09:01:32;;;;;;;11.10;3.33;;;;;;;;;;5062882;28;20190;-78
2023/09/19 09:03:58;;;;;;;15.77;4.20;;;;;;;;;;5067884;28;20219;-76
2023/09/19 09:06:25;;;;;;;12.55;4.15;;;;;;;;;;5076268;28;20417;-75
2023/09/19 09:08:54;;;;;;;18.23;3.63;;;;;;;;;;5078803;28;20272;-76
2023/09/19 09:11:21;;;;;;;15.23;4.28;;;;;;;;;;5081149;28;20432;-75
2023/09/19 09:13:48;;;;;;;14.37;3.80;;;;;;;;;;5055594;28;20187;-76
2023/09/19 09:16:18;;;;;;;12.30;3.53;;;;;;;;;;5066940;28;20186;-77
2023/09/19 09:18:45;;;;;;;9.97;3.57;;;;;;;;;;5076630;28;20190;-76
2023/09/19 09:21:11;;;;;;;11.20;3.47;;;;;;;;;;5060113;28;20183;-76
2023/09/19 09:23:38;;;;;;;9.77;3.40;;;;;;;;;;5059494;28;20210;-76
2023/09/19 09:26:06;;;;;;;9.10;3.30;;;;;;;;;;5076502;28;20249;-76
2023/09/19 09:28:33;;;;;;;12.57;3.83;;;;;;;;;;5092868;28;20420;-76
2023/09/19 09:30:59;;;;;;;13.35;3.97;;;;;;;;;;5075647;28;20397;-80
2023/09/19 09:33:26;;;;;;;9.80;3.20;;;;;;;;;;5075868;28;20174;-80
2023/09/19 09:36:00;;;;;;;12.23;3.17;;;;;;;;;;5094492;28;20167;-79
2023/09/19 09:38:48;;;;;;;11.20;3.43;;;;;;;;;;5093002;28;20162;-79
2023/09/19 09:41:26;;;;;;;10.57;3.23;;;;;;;;;;5094279;28;20223;-79
2023/09/19 09:43:53;;;;;;;13.03;3.70;;;;;;;;;;5091586;28;20202;-79
2023/09/19 09:51:57;;;;;;;10.23;3.17;;;;;;;;;;5093956;28;20466;-81
2023/09/19 09:54:23;;;;;;;9.40;3.17;;;;;;;;;;5075153;28;20228;-81
2023/09/19 09:56:54;;;;;;;12.33;3.60;;;;;;;;;;5060366;28;20284;-80
2023/09/19 09:59:23;;;;;;;13.27;3.95;;;;;;;;;;5074554;28;20420;-81
2023/09/19 10:01:50;;;;;;;12.00;3.50;;;;;;;;;;5052749;28;20278;-81
2023/09/19 10:04:36;;;;;;;14.97;3.43;;;;;;;;;;5077564;28;20209;-80
2023/09/19 10:07:05;;;;;;;8.97;3.20;;;;;;;;;;5094399;28;20178;-81
2023/09/19 10:09:45;;;;;;;11.52;3.72;;;;;;;;;;5077126;28;20484;-80
2023/09/19 10:12:13;;;;;;;10.90;3.60;;;;;;;;;;5076282;28;20218;-81
2023/09/19 10:14:39;;;;;;;11.57;3.13;;;;;;;;;;5069251;28;20186;-82
2023/09/19 10:17:06;;;;;;;13.13;3.40;;;;;;;;;;5057029;28;20187;-82
2023/09/19 10:19:46;;;;;;;10.07;3.57;;;;;;;;;;5091220;28;20186;-82
2023/09/19 10:22:14;;;;;;;8.73;3.10;;;;;;;;;;5094851;28;20174;-80
2023/09/19 10:24:41;;;;;;;10.73;3.23;;;;;;;;;;5060005;28;20210;-80
2023/09/19 10:27:08;;;;;;;12.20;3.60;;;;;;;;;;5076179;28;20174;-80
2023/09/19 10:29:36;;;;;;;9.10;3.20;;;;;;;;;;5076372;28;20182;-80
2023/09/19 10:32:05;;;;;;;14.43;3.40;;;;;;;;;;5093998;28;20173;-80
2023/09/19 10:34:34;;;;;;;12.70;3.38;;;;;;;;;;5094482;28;20404;-80
2023/09/19 10:37:05;;;;;;;15.60;3.43;;;;;;;;;;5076589;28;20206;-80
2023/09/19 10:39:32;;;;;;;10.47;3.20;;;;;;;;;;5077860;28;20179;-80
2023/09/19 10:42:05;;;;;;;10.90;3.13;;;;;;;;;;5061318;28;20183;-80
2023/09/19 10:44:32;;;;;;;11.70;3.20;;;;;;;;;;5079059;28;20206;-80
2023/09/19 10:46:59;;;;;;;10.43;3.60;;;;;;;;;;5080537;28;20405;-80
2023/09/19 10:49:25;;;;;;;15.27;3.73;;;;;;;;;;5079737;28;20175;-80
2023/09/19 10:51:58;;;;;;;8.60;3.20;;;;;;;;;;5097331;28;20163;-80
2023/09/19 10:54:28;;;;;;;10.60;3.47;;;;;;;;;;5093717;28;20175;-80
2023/09/19 10:56:54;;;;;;;12.27;3.40;;;;;;;;;;5076932;28;20183;-79
2023/09/19 10:59:21;;;;;;;10.37;3.00;;;;;;;;;;5062401;28;20210;-77
2023/09/19 11:01:51;;;;;;;16.23;3.50;;;;;;;;;;5077127;28;20185;-77
2023/09/19 11:04:36;;;;;;;11.30;3.37;;;;;;;;;;5079122;28;20241;-77
2023/09/19 11:07:10;;;;;;;11.03;3.10;;;;;;;;;;5075769;28;20202;-77
2023/09/19 11:09:51;;;;;;;10.27;3.27;;;;;;;;;;5078652;28;20182;-76
2023/09/19 11:12:27;;;;;;;13.10;3.30;;;;;;;;;;5094232;28;20214;-76
2023/09/19 11:14:53;;;;;;;9.43;2.87;;;;;;;;;;5068903;28;20186;-77
2023/09/19 11:17:22;;;;;;;12.07;3.30;;;;;;;;;;5079444;28;20304;-77
2023/09/19 11:22:56;;;;;;;12.03;3.10;;;;;;;;;;5096319;28;20424;-76
2023/09/19 11:25:39;;;;;;;10.43;2.83;;;;;;;;;;5078605;28;20460;-76
2023/09/19 11:28:08;;;;;;;12.47;3.30;;;;;;;;;;5079768;28;20308;-76
2023/09/19 11:30:36;;;;;;;14.67;3.30;;;;;;;;;;5067477;28;20182;-77
2023/09/19 11:33:21;;;;;;;8.77;2.70;;;;;;;;;;5078436;28;20228;-77
2023/09/19 11:36:06;;;;;;;10.20;2.97;;;;;;;;;;5077340;28;20186;-77
2023/09/19 11:38:45;;;;;;;8.17;2.83;;;;;;;;;;5079111;28;20170;-77
2023/09/19 11:41:32;;;;;;;7.95;2.70;;;;;;;;;;5078455;28;20432;-77
2023/09/19 11:44:03;;;;;;;15.27;3.07;;;;;;;;;;5059726;28;20264;-79
2023/09/19 11:46:30;;;;;;;9.93;2.90;;;;;;;;;;5076979;28;20242;-79
2023/09/19 11:49:15;;;;;;;8.87;2.60;;;;;;;;;;5058996;28;20203;-80
2023/09/19 11:51:44;;;;;;;8.07;2.75;;;;;;;;;;5057191;28;20463;-80
2023/09/19 11:54:17;;;;;;;6.80;2.57;;;;;;;;;;5076210;28;20163;-80
2023/09/19 11:56:45;;;;;;;9.00;2.63;;;;;;;;;;5058565;28;20228;-80
2023/09/19 11:59:11;;;;;;;7.83;2.47;;;;;;;;;;5042344;28;20176;-79
2023/09/19 12:01:40;;;;;;;9.90;3.00;;;;;;;;;;5084937;28;20431;-77
2023/09/19 12:04:08;;;;;;;7.43;2.70;;;;;;;;;;5078459;28;20198;-77
2023/09/19 12:06:35;;;;;;;9.53;2.53;;;;;;;;;;5076891;28;20202;-77
2023/09/19 12:09:06;;;;;;;8.77;2.37;;;;;;;;;;5054475;28;20253;-77
2023/09/19 12:11:33;;;;;;;6.40;2.27;;;;;;;;;;5090479;28;20214;-77
2023/09/19 12:14:00;;;;;;;9.83;2.67;;;;;;;;;;5078279;28;20192;-77
2023/09/19 12:16:30;;;;;;;9.10;2.50;;;;;;;;;;5076666;28;20182;-77
2023/09/19 12:18:57;;;;;;;6.17;2.30;;;;;;;;;;5062396;28;20182;-77
2023/09/19 12:21:23;;;;;;;9.03;2.40;;;;;;;;;;5078252;28;20242;-77
2023/09/19 12:23:59;;;;;;;7.88;2.63;;;;;;;;;;5075406;28;20442;-77
2023/09/19 12:26:28;;;;;;;7.15;2.50;;;;;;;;;;5035818;23;20476;-82
2023/09/19 12:28:55;;;;;;;8.60;2.57;;;;;;;;;;5019040;28;20172;-83
2023/09/19 12:31:22;;;;;;;8.17;2.17;;;;;;;;;;5017753;28;20178;-83
2023/09/19 12:33:53;;;;;;;6.63;2.17;;;;;;;;;;5017910;28;20204;-82
2023/09/19 12:36:29;;;;;;;10.93;2.60;;;;;;;;;;5018057;28;20207;-83
2023/09/19 12:38:56;;;;;;;7.20;2.40;;;;;;;;;;5017764;28;20181;-82
2023/09/19 12:41:22;;;;;;;8.33;2.20;;;;;;;;;;5017722;28;20203;-82
2023/09/19 12:43:48;;;;;;;7.37;2.10;;;;;;;;;;5017886;28;20212;-82
2023/09/19 12:46:14;;;;;;;6.77;1.93;;;;;;;;;;5018927;28;20183;-81
2023/09/19 12:48:44;;;;;;;4.30;2.10;;;;;;;;;;5001280;28;20191;-82
2023/09/19 12:51:12;;;;;;;5.40;2.00;;;;;;;;;;5017232;28;20196;-85
2023/09/19 12:53:42;;;;;;;7.82;2.20;;;;;;;;;;5014295;28;20489;-84
2023/09/19 12:56:09;;;;;;;5.20;2.07;;;;;;;;;;5013161;28;20196;-85
2023/09/19 12:58:38;;;;;;;7.70;2.27;;;;;;;;;;5025055;28;20176;-84
2023/09/19 13:01:14;;;;;;;6.30;1.90;;;;;;;;;;5013347;28;20290;-84
2023/09/19 13:03:40;;;;;;;4.83;1.83;;;;;;;;;;5010232;28;20205;-83
2023/09/19 13:06:07;;;;;;;6.80;2.00;;;;;;;;;;5012082;28;20195;-84
2023/09/19 13:08:38;;;;;;;8.50;2.03;;;;;;;;;;4999167;28;20200;-78
2023/09/19 13:11:12;;;;;;;6.43;2.20;;;;;;;;;;5028590;28;20181;-79
2023/09/19 13:14:01;;;;;;;6.70;2.17;;;;;;;;;;5012634;28;20186;-77
2023/09/19 13:16:27;;;;;;;5.20;1.70;;;;;;;;;;5003829;28;20200;-78
2023/09/19 13:18:59;;;;;;;5.30;2.10;;;;;;;;;;5029363;28;20311;-79
2023/09/19 13:21:45;;;;;;;3.37;1.70;;;;;;;;;;5014276;28;20184;-79
2023/09/19 13:24:22;;;;;;;6.43;2.00;;;;;;;;;;5016268;28;20223;-82
2023/09/19 13:26:48;;;;;;;8.07;1.97;;;;;;;;;;5030035;28;20227;-82
2023/09/19 13:29:17;;;;;;;6.53;1.77;;;;;;;;;;5026027;28;20185;-82
2023/09/19 13:31:46;;;;;;;9.50;2.07;;;;;;;;;;5030928;28;20210;-82
2023/09/19 13:34:14;;;;;;;5.80;1.60;;;;;;;;;;5024544;28;20184;-83
2023/09/19 13:36:40;;;;;;;6.07;2.10;;;;;;;;;;5012178;28;20431;-82
2023/09/19 13:39:08;;;;;;;6.20;1.90;;;;;;;;;;5004914;28;20195;-83
2023/09/19 13:41:36;;;;;;;5.43;1.60;;;;;;;;;;5015335;28;20247;-82
2023/09/19 13:44:02;;;;;;;5.63;1.70;;;;;;;;;;5003703;28;20216;-82
2023/09/19 13:46:30;;;;;;;4.40;1.57;;;;;;;;;;5016054;28;20234;-82
2023/09/19 13:48:59;;;;;;;6.23;1.80;;;;;;;;;;5006314;28;20187;-82
2023/09/19 13:51:26;;;;;;;3.37;1.50;;;;;;;;;;5004211;28;20211;-82
2023/09/19 13:53:53;;;;;;;4.60;1.60;;;;;;;;;;5028057;28;20188;-82
2023/09/19 13:56:19;;;;;;;4.80;1.70;;;;;;;;;;5014965;28;20430;-83
2023/09/19 13:58:45;;;;;;;6.00;1.60;;;;;;;;;;5019599;28;20213;-83
2023/09/19 14:01:12;;;;;;;7.93;1.70;;;;;;;;;;5019860;28;20176;-82
2023/09/19 14:03:46;;;;;;;3.23;1.43;;;;;;;;;;5017104;28;20302;-82
2023/09/19 14:06:16;;;;;;;4.53;1.60;;;;;;;;;;5022773;28;20180;-82
2023/09/19 14:08:44;;;;;;;4.00;1.50;;;;;;;;;;5033378;28;20188;-82
2023/09/19 14:11:10;;;;;;;4.53;1.47;;;;;;;;;;5000342;28;20177;-83
2023/09/19 14:13:36;;;;;;;4.17;1.70;;;;;;;;;;5029613;28;20204;-84
2023/09/19 14:16:06;;;;;;;2.57;1.27;;;;;;;;;;5021631;28;20215;-84
2023/09/19 14:18:33;;;;;;;4.83;1.40;;;;;;;;;;5020963;28;20267;-84
2023/09/19 14:20:59;;;;;;;4.20;1.67;;;;;;;;;;5020086;28;20460;-83
2023/09/19 14:23:26;;;;;;;5.75;1.55;;;;;;;;;;5029114;28;20459;-83
2023/09/19 14:25:53;;;;;;;5.37;1.77;;;;;;;;;;5023426;28;20278;-84
2023/09/19 14:28:19;;;;;;;3.57;1.30;;;;;;;;;;5024166;28;20207;-84
2023/09/19 14:30:46;;;;;;;4.30;1.40;;;;;;;;;;5021326;28;20196;-79
2023/09/19 14:33:12;;;;;;;4.23;1.60;;;;;;;;;;5020006;28;20177;-79
2023/09/19 14:35:38;;;;;;;4.07;1.70;;;;;;;;;;5002837;28;20434;-79
2023/09/19 14:38:04;;;;;;;4.60;1.70;;;;;;;;;;5009221;28;20435;-79
2023/09/19 14:40:30;;;;;;;7.95;1.95;;;;;;;;;;5022519;28;20460;-79
2023/09/19 14:42:57;;;;;;;5.17;1.63;;;;;;;;;;5038504;28;20233;-79
2023/09/19 14:45:25;;;;;;;6.83;1.80;;;;;;;;;;5055897;28;20200;-79
2023/09/19 14:47:56;;;;;;;5.53;1.80;;;;;;;;;;5018921;28;20416;-82
2023/09/19 14:50:22;;;;;;;4.63;1.80;;;;;;;;;;5038576;28;20197;-82